Amboy, Iowa
Current Conditions -  °F | °C
As of 4:55 AM on Sunday 23 Nov 2014 (Local Time) from KTNU Reporting Station
Overcast Overcast  
Wind Chill: 52°   Ceiling: 900
Heat Index: 52°   Visibility: 10mi
Dew Point: 50°   Wind: 12mph
Humidity: 94%   Direction: 170°S
Pressure: 29.57"   Gusts: NA
Location:  41.7317°N, 93.0122°W
Report Text: KTNU 231055Z AUTO 17010KT 10SM BKN009 OVC015 11/10 A2957 RMK AO2
Loading
Personal Weather Stations






























Interactive Weather Map New forecast layout! Learn more

10-Day Weather Forecast

Advertisements
Track Severe Weather on mobile